Time;durP1;ratioP1;P1;durP2;ratioP2;P2;SDS_P1;SDS_P2;PMS_P1;PMS_P2;Temp;Humidity;BMP_temperature;BMP_pressure;BME280_temperature;BME280_humidity;BME280_pressure;Samples;Min_cycle;Max_cycle;Signal;HPM_P1;HPM_P2
2020/12/09 00:01:13;;;;;;;19.38;7.50;;;-4.20;83.90;;;;;;5053295;28;20027;-79
2020/12/09 00:03:39;;;;;;;22.45;8.27;;;-4.20;83.70;;;;;;5056610;28;20036;-79
2020/12/09 00:06:06;;;;;;;17.90;7.95;;;-4.20;83.60;;;;;;5056594;28;20106;-80
2020/12/09 00:08:32;;;;;;;22.02;8.73;;;-4.20;83.60;;;;;;5038718;28;20025;-79
2020/12/09 00:10:58;;;;;;;16.02;7.75;;;-4.20;83.50;;;;;;5056456;28;20075;-79
2020/12/09 00:13:24;;;;;;;17.52;7.63;;;-4.20;83.50;;;;;;5056135;28;20100;-79
2020/12/09 00:15:50;;;;;;;16.48;7.90;;;-4.20;83.40;;;;;;5056419;28;20088;-79
2020/12/09 00:18:15;;;;;;;17.88;8.18;;;-4.20;83.40;;;;;;5056919;28;20473;-79
2020/12/09 00:20:41;;;;;;;16.20;7.72;;;-4.20;83.40;;;;;;5056221;28;20090;-79
2020/12/09 00:23:07;;;;;;;18.27;8.73;;;-4.20;83.50;;;;;;5056095;28;20036;-79
2020/12/09 00:25:32;;;;;;;15.40;8.02;;;-4.10;83.70;;;;;;5055573;28;20076;-79
2020/12/09 00:27:58;;;;;;;18.05;8.50;;;-4.10;83.70;;;;;;5056197;28;20082;-79
2020/12/09 00:30:24;;;;;;;18.40;7.43;;;-4.10;83.60;;;;;;5056205;28;20052;-79
2020/12/09 00:32:50;;;;;;;22.75;9.20;;;-4.10;83.50;;;;;;5038486;28;20482;-79
2020/12/09 00:35:16;;;;;;;21.48;9.48;;;-4.10;83.30;;;;;;5038401;28;20072;-79
2020/12/09 00:37:42;;;;;;;18.92;7.25;;;-4.10;83.50;;;;;;5056112;28;20774;-78
2020/12/09 00:40:08;;;;;;;21.33;8.00;;;-4.10;83.40;;;;;;5055370;28;20036;-79
2020/12/09 00:42:35;;;;;;;21.73;9.27;;;-4.10;83.10;;;;;;5055889;28;20025;-79
2020/12/09 00:45:00;;;;;;;20.10;8.30;;;-4.10;83.20;;;;;;5055620;28;20408;-78
2020/12/09 00:47:26;;;;;;;17.73;9.02;;;-4.10;83.30;;;;;;5055263;28;20033;-80
2020/12/09 00:50:27;;;;;;;20.08;8.30;;;-4.10;83.30;;;;;;5055169;28;20021;-79
2020/12/09 00:52:44;;;;;;;13.82;7.13;;;-4.10;83.30;;;;;;5055430;28;20035;-79
2020/12/09 00:55:10;;;;;;;19.75;8.23;;;-4.10;83.10;;;;;;5038094;28;20025;-79
2020/12/09 00:57:36;;;;;;;26.90;11.00;;;-4.10;83.00;;;;;;5055560;28;20040;-80
2020/12/09 01:00:06;;;;;;;23.17;8.63;;;-4.10;83.20;;;;;;5055400;28;20036;-79
2020/12/09 01:02:32;;;;;;;23.02;9.30;;;-4.10;82.90;;;;;;5055461;28;20426;-79
2020/12/09 01:04:58;;;;;;;23.13;9.45;;;-4.10;83.10;;;;;;5055434;28;20025;-79
2020/12/09 01:07:23;;;;;;;20.33;8.63;;;-4.10;83.20;;;;;;5055476;28;20104;-79
2020/12/09 01:09:49;;;;;;;22.58;10.20;;;-4.10;83.20;;;;;;5055323;28;20428;-79
2020/12/09 01:12:15;;;;;;;19.73;9.23;;;-4.10;83.00;;;;;;5055427;28;20017;-79
2020/12/09 01:14:41;;;;;;;22.20;8.68;;;-4.20;82.90;;;;;;5054594;28;20091;-79
2020/12/09 01:17:07;;;;;;;20.77;8.95;;;-4.20;82.80;;;;;;5037245;28;20024;-80
2020/12/09 01:19:33;;;;;;;21.95;9.65;;;-4.20;82.90;;;;;;5055413;28;20021;-80
2020/12/09 01:22:03;;;;;;;20.90;9.10;;;-4.20;82.90;;;;;;5055141;28;20494;-79
2020/12/09 01:24:29;;;;;;;28.38;11.70;;;-4.20;82.80;;;;;;5037135;28;20463;-80
2020/12/09 01:26:55;;;;;;;24.05;9.73;;;-4.10;83.00;;;;;;5055452;28;20032;-80
2020/12/09 01:29:20;;;;;;;22.13;10.50;;;-4.20;82.80;;;;;;5055380;28;20032;-81
2020/12/09 01:31:47;;;;;;;24.02;9.82;;;-4.20;83.00;;;;;;5037458;28;20025;-80
2020/12/09 01:34:14;;;;;;;19.00;8.73;;;-4.10;83.20;;;;;;5037879;28;20021;-81
2020/12/09 01:36:41;;;;;;;19.70;8.82;;;-4.10;83.20;;;;;;5055674;28;20375;-80
2020/12/09 01:39:07;;;;;;;17.52;8.57;;;-4.10;83.10;;;;;;5055201;28;20119;-80
2020/12/09 01:41:32;;;;;;;17.42;8.27;;;-4.10;83.00;;;;;;5055463;28;20436;-80
2020/12/09 01:43:58;;;;;;;16.05;8.00;;;-4.10;83.10;;;;;;5055401;28;20039;-80
2020/12/09 01:46:31;;;;;;;22.35;9.73;;;-4.00;83.30;;;;;;5037169;28;20119;-80
2020/12/09 01:48:59;;;;;;;18.20;8.48;;;-4.00;83.10;;;;;;5055126;28;20352;-80
2020/12/09 01:51:26;;;;;;;19.58;9.38;;;-4.00;83.20;;;;;;5037016;28;20021;-80
2020/12/09 01:53:53;;;;;;;16.80;8.57;;;-4.00;83.10;;;;;;5054736;28;20040;-80
2020/12/09 01:56:19;;;;;;;19.02;8.93;;;-4.00;83.20;;;;;;5054964;28;20033;-80
2020/12/09 01:58:45;;;;;;;12.43;7.43;;;-4.00;83.10;;;;;;5054208;28;20102;-79
2020/12/09 02:01:11;;;;;;;21.67;8.93;;;-4.10;83.10;;;;;;5054063;28;20472;-80
2020/12/09 02:03:37;;;;;;;21.23;9.80;;;-4.00;83.80;;;;;;5036411;28;20083;-79
2020/12/09 02:06:04;;;;;;;22.98;9.30;;;-4.00;83.20;;;;;;5035737;28;20025;-79
2020/12/09 02:08:30;;;;;;;17.80;9.02;;;-4.00;83.10;;;;;;5053617;28;20067;-78
2020/12/09 02:10:58;;;;;;;19.83;9.48;;;-4.00;83.10;;;;;;5053624;28;20475;-79
2020/12/09 02:13:24;;;;;;;25.40;10.48;;;-4.00;83.30;;;;;;5053749;28;20021;-78
2020/12/09 02:15:50;;;;;;;28.10;10.57;;;-4.00;83.40;;;;;;5053492;28;20100;-79
2020/12/09 02:18:16;;;;;;;31.50;11.27;;;-4.00;83.50;;;;;;5053625;28;20036;-79
2020/12/09 02:20:41;;;;;;;23.83;10.35;;;-3.90;83.70;;;;;;5053755;28;20487;-78
2020/12/09 02:23:07;;;;;;;39.35;13.27;;;-3.90;83.60;;;;;;5053532;28;20033;-78
2020/12/09 02:25:33;;;;;;;22.33;9.73;;;-3.90;83.60;;;;;;5053260;28;20037;-78
2020/12/09 02:27:59;;;;;;;19.73;9.30;;;-3.90;83.50;;;;;;5035481;28;20033;-78
2020/12/09 02:30:24;;;;;;;28.98;12.18;;;-3.90;83.70;;;;;;5054424;28;20034;-79
2020/12/09 02:32:50;;;;;;;17.80;9.02;;;-3.90;83.80;;;;;;5054197;28;20037;-79
2020/12/09 02:35:16;;;;;;;22.15;9.63;;;-3.80;83.90;;;;;;5053941;28;20074;-79
2020/12/09 02:37:41;;;;;;;22.77;9.82;;;-3.80;84.10;;;;;;5053708;28;20028;-79
2020/12/09 02:40:07;;;;;;;21.17;10.00;;;-3.80;84.20;;;;;;5053893;28;20426;-79
2020/12/09 02:42:33;;;;;;;22.17;10.30;;;-3.80;84.20;;;;;;5053696;28;20029;-79
2020/12/09 02:44:58;;;;;;;23.85;11.38;;;-3.70;84.20;;;;;;5036192;28;20060;-79
2020/12/09 02:47:24;;;;;;;22.85;11.13;;;-3.70;84.40;;;;;;5035713;28;20033;-78
2020/12/09 02:49:50;;;;;;;23.23;10.73;;;-3.70;84.50;;;;;;5035654;28;20088;-79
2020/12/09 02:52:15;;;;;;;31.25;12.20;;;-3.70;84.60;;;;;;5035577;28;20028;-79
2020/12/09 02:54:41;;;;;;;28.13;10.80;;;-3.60;84.70;;;;;;5053344;28;20028;-79
2020/12/09 02:57:07;;;;;;;22.75;10.63;;;-3.60;84.60;;;;;;5052903;28;20029;-79
2020/12/09 02:59:32;;;;;;;26.23;11.10;;;-3.60;84.60;;;;;;5053061;28;20036;-79
2020/12/09 03:01:58;;;;;;;22.08;10.43;;;-3.60;84.70;;;;;;5035356;28;20490;-78
2020/12/09 03:04:24;;;;;;;21.48;10.13;;;-3.60;84.90;;;;;;5052952;28;20024;-79
2020/12/09 03:06:49;;;;;;;24.25;10.95;;;-3.60;84.90;;;;;;5035025;28;20028;-79
2020/12/09 03:09:15;;;;;;;36.92;12.75;;;-3.60;84.80;;;;;;5053149;28;20112;-79
2020/12/09 03:11:41;;;;;;;25.38;10.98;;;-3.60;84.90;;;;;;5034629;28;20028;-78
2020/12/09 03:14:06;;;;;;;25.40;9.90;;;-3.50;85.10;;;;;;5052422;28;20379;-78
2020/12/09 03:16:32;;;;;;;24.70;10.93;;;-3.50;85.10;;;;;;5052435;28;20082;-78
2020/12/09 03:18:59;;;;;;;18.10;9.25;;;-3.50;85.10;;;;;;5052496;28;20021;-79
2020/12/09 03:21:24;;;;;;;25.95;9.88;;;-3.50;85.00;;;;;;5052267;28;20021;-78
2020/12/09 03:23:50;;;;;;;24.17;11.07;;;-3.50;84.90;;;;;;5052109;28;20041;-78
2020/12/09 03:26:16;;;;;;;24.35;11.55;;;-3.50;84.90;;;;;;5052169;28;20017;-78
2020/12/09 03:28:42;;;;;;;25.40;11.55;;;-3.50;85.20;;;;;;5052471;28;20363;-78
2020/12/09 03:31:08;;;;;;;24.73;11.25;;;-3.50;85.50;;;;;;5034152;28;20021;-78
2020/12/09 03:33:35;;;;;;;28.88;11.82;;;-3.50;85.40;;;;;;5052267;28;20024;-78
2020/12/09 03:36:02;;;;;;;23.60;11.25;;;-3.50;85.30;;;;;;5052332;28;20025;-78
2020/12/09 03:38:28;;;;;;;26.23;11.85;;;-3.50;85.40;;;;;;5056392;28;20021;-78
2020/12/09 03:40:53;;;;;;;35.75;14.30;;;-3.40;85.50;;;;;;5038327;28;20063;-78
2020/12/09 03:43:19;;;;;;;29.00;11.63;;;-3.40;85.60;;;;;;5038429;28;20064;-78
2020/12/09 03:45:45;;;;;;;30.17;12.35;;;-3.40;85.70;;;;;;5056100;28;20025;-78
2020/12/09 03:48:10;;;;;;;27.25;11.02;;;-3.40;85.70;;;;;;5055954;28;20063;-78
2020/12/09 03:50:36;;;;;;;24.20;11.38;;;-3.40;85.60;;;;;;5056033;28;20025;-78
2020/12/09 03:53:02;;;;;;;29.50;11.77;;;-3.40;85.70;;;;;;5055918;28;20025;-79
2020/12/09 03:55:28;;;;;;;26.25;11.70;;;-3.40;85.70;;;;;;5056023;28;20374;-78
2020/12/09 03:57:56;;;;;;;35.95;14.45;;;-3.40;85.70;;;;;;5038422;28;20040;-78
2020/12/09 04:00:22;;;;;;;25.08;11.32;;;-3.40;85.90;;;;;;5056104;28;20040;-78
2020/12/09 04:02:48;;;;;;;28.42;12.75;;;-3.40;85.90;;;;;;5056220;28;20021;-78
2020/12/09 04:05:13;;;;;;;28.52;13.15;;;-3.40;86.00;;;;;;5056101;28;20100;-78
2020/12/09 04:07:39;;;;;;;21.13;11.05;;;-3.40;86.20;;;;;;5056036;28;20029;-79
2020/12/09 04:10:06;;;;;;;22.10;10.70;;;-3.30;86.20;;;;;;5055900;28;20081;-78
2020/12/09 04:12:31;;;;;;;23.70;11.35;;;-3.30;86.10;;;;;;5055655;28;20017;-78
2020/12/09 04:14:57;;;;;;;22.95;11.35;;;-3.30;86.10;;;;;;5055697;28;20028;-78
2020/12/09 04:17:23;;;;;;;22.50;10.05;;;-3.30;86.30;;;;;;5055584;28;20112;-78
2020/12/09 04:19:49;;;;;;;19.95;9.25;;;-3.40;86.10;;;;;;5038287;28;20471;-79
2020/12/09 04:22:15;;;;;;;23.52;11.52;;;-3.30;86.30;;;;;;5037877;28;20498;-78
2020/12/09 04:24:42;;;;;;;22.60;10.05;;;-3.30;86.10;;;;;;5055424;28;20041;-79
2020/12/09 04:27:07;;;;;;;19.65;10.27;;;-3.40;86.00;;;;;;5055742;28;20029;-78
2020/12/09 04:29:33;;;;;;;27.17;12.05;;;-3.40;86.10;;;;;;5055613;28;20024;-78
2020/12/09 04:31:59;;;;;;;23.27;11.73;;;-3.40;86.40;;;;;;5055740;28;20025;-78
2020/12/09 04:34:24;;;;;;;26.58;12.15;;;-3.40;86.30;;;;;;5055946;28;20025;-78
2020/12/09 04:36:50;;;;;;;29.63;12.18;;;-3.40;86.40;;;;;;5055812;28;20028;-78
2020/12/09 04:39:17;;;;;;;22.55;10.63;;;-3.40;86.60;;;;;;5055461;28;20123;-78
2020/12/09 04:41:44;;;;;;;34.13;13.05;;;-3.40;86.70;;;;;;5055930;28;20024;-79
2020/12/09 04:44:10;;;;;;;24.92;11.85;;;-3.40;86.70;;;;;;5055532;28;20025;-78
2020/12/09 04:46:41;;;;;;;27.35;12.75;;;-3.40;86.70;;;;;;5037103;28;20063;-78
2020/12/09 04:49:15;;;;;;;24.60;12.93;;;-3.40;86.80;;;;;;5055699;28;20027;-80
2020/12/09 04:51:59;;;;;;;32.50;14.63;;;-3.40;86.70;;;;;;5055757;28;20027;-81
2020/12/09 04:54:43;;;;;;;22.83;11.93;;;-3.40;86.90;;;;;;5055648;28;20052;-80
2020/12/09 04:57:19;;;;;;;27.85;12.82;;;-3.30;86.90;;;;;;5056167;28;20028;-80
2020/12/09 04:59:58;;;;;;;37.53;16.48;;;-3.40;86.90;;;;;;5055441;28;20033;-80
2020/12/09 05:02:42;;;;;;;29.55;12.77;;;-3.40;86.90;;;;;;5055666;28;20039;-80
2020/12/09 05:05:10;;;;;;;23.92;11.50;;;-3.30;87.20;;;;;;5055627;28;20060;-79
2020/12/09 05:07:37;;;;;;;21.65;11.65;;;-3.30;87.20;;;;;;5037327;28;20550;-80
2020/12/09 05:10:07;;;;;;;25.75;12.98;;;-3.30;87.10;;;;;;5055580;28;20021;-80
2020/12/09 05:12:41;;;;;;;27.08;11.77;;;-3.40;87.00;;;;;;5055263;28;20021;-81
2020/12/09 05:15:11;;;;;;;26.15;11.45;;;-3.40;87.10;;;;;;5055728;28;20029;-79
2020/12/09 05:17:54;;;;;;;26.08;12.88;;;-3.40;87.20;;;;;;5055258;28;20029;-80
2020/12/09 05:20:27;;;;;;;;;;;-3.40;87.30;;;;;;5055704;28;20035;-80
2020/12/09 05:22:56;;;;;;;22.40;10.48;;;-3.40;87.40;;;;;;5037655;28;20014;-80
2020/12/09 05:25:26;;;;;;;30.92;14.15;;;-3.30;87.50;;;;;;5036724;28;20040;-80
2020/12/09 05:27:53;;;;;;;37.20;16.13;;;-3.40;87.60;;;;;;5054386;28;20064;-80
2020/12/09 05:30:41;;;;;;;35.05;15.07;;;-3.30;87.90;;;;;;5053523;28;20379;-81
2020/12/09 05:33:09;;;;;;;31.25;13.85;;;-3.30;88.10;;;;;;5053990;28;20379;-80
2020/12/09 05:35:35;;;;;;;38.78;16.40;;;-3.30;88.10;;;;;;5037615;28;20420;-81
2020/12/09 05:38:27;;;;;;;32.75;14.80;;;-3.30;88.20;;;;;;5054705;28;20104;-78
2020/12/09 05:40:55;;;;;;;43.08;17.45;;;-3.20;88.50;;;;;;5049137;28;20068;-80
2020/12/09 05:43:20;;;;;;;43.30;17.05;;;-3.20;88.50;;;;;;5053518;28;20028;-79
2020/12/09 05:45:46;;;;;;;25.92;12.00;;;-3.20;88.60;;;;;;5053365;28;20029;-78
2020/12/09 05:48:24;;;;;;;44.97;17.45;;;-3.20;88.70;;;;;;5053539;28;20096;-78
2020/12/09 05:50:50;;;;;;;38.50;14.25;;;-3.20;88.60;;;;;;5053286;28;20361;-81
2020/12/09 05:53:21;;;;;;;42.92;16.50;;;-3.10;88.70;;;;;;5053895;28;20078;-80
2020/12/09 05:55:47;;;;;;;43.40;17.52;;;-3.10;88.70;;;;;;5035669;28;20075;-80
2020/12/09 05:58:27;;;;;;;58.00;23.10;;;-3.10;88.90;;;;;;5053417;28;20021;-80
2020/12/09 06:01:09;;;;;;;45.33;17.60;;;-3.10;88.90;;;;;;5052245;28;20029;-80
2020/12/09 06:03:36;;;;;;;34.45;14.07;;;-3.00;89.00;;;;;;5034676;28;20061;-80
2020/12/09 06:06:22;;;;;;;45.20;18.50;;;-3.00;89.00;;;;;;5034742;28;20029;-80
2020/12/09 06:08:54;;;;;;;33.35;16.23;;;-3.00;89.00;;;;;;5053748;28;20029;-79
2020/12/09 06:11:24;;;;;;;32.80;14.18;;;-3.00;89.20;;;;;;5053411;28;20029;-80
2020/12/09 06:13:50;;;;;;;31.35;12.57;;;-3.00;89.30;;;;;;5052550;28;20065;-80
2020/12/09 06:16:20;;;;;;;37.53;16.27;;;-3.00;89.20;;;;;;5052606;28;20466;-80
2020/12/09 06:18:51;;;;;;;38.53;16.17;;;-2.90;89.40;;;;;;5052852;28;20029;-80
2020/12/09 06:21:17;;;;;;;34.38;15.40;;;-2.90;89.40;;;;;;5052557;28;20032;-80
2020/12/09 06:23:44;;;;;;;32.13;15.00;;;-2.90;89.20;;;;;;5054528;28;20041;-80
2020/12/09 06:26:10;;;;;;;44.38;17.40;;;-2.90;89.40;;;;;;5052258;28;20048;-80
2020/12/09 06:28:41;;;;;;;37.78;16.17;;;-2.90;89.60;;;;;;5052364;28;20117;-82
2020/12/09 06:31:11;;;;;;;38.33;17.08;;;-2.80;89.60;;;;;;5052614;28;20029;-80
2020/12/09 06:33:47;;;;;;;40.15;17.52;;;-2.80;89.50;;;;;;5052345;28;20048;-78
2020/12/09 06:36:15;;;;;;;34.05;15.38;;;-2.80;89.70;;;;;;5052044;28;20024;-80
2020/12/09 06:39:02;;;;;;;39.13;17.90;;;-2.80;89.60;;;;;;5042281;28;20033;-81
2020/12/09 06:41:27;;;;;;;43.38;17.55;;;-2.80;89.50;;;;;;5015103;28;20089;-81
2020/12/09 06:44:14;;;;;;;39.08;17.70;;;-2.70;89.70;;;;;;5033504;28;20196;-81
2020/12/09 06:46:41;;;;;;;37.10;17.30;;;-2.70;89.60;;;;;;5033266;28;20121;-80
2020/12/09 06:49:29;;;;;;;44.28;18.60;;;-2.70;89.70;;;;;;5015690;28;20071;-81
2020/12/09 06:52:00;;;;;;;38.17;16.85;;;-2.70;89.80;;;;;;5016875;28;20025;-80
2020/12/09 06:54:38;;;;;;;41.00;18.05;;;-2.70;89.70;;;;;;5034608;28;20099;-81
2020/12/09 06:57:33;;;;;;;43.10;18.42;;;-2.70;90.00;;;;;;5014805;28;20067;-81
2020/12/09 07:00:14;;;;;;;46.88;19.98;;;-2.70;89.60;;;;;;5032649;28;20036;-82
2020/12/09 07:02:44;;;;;;;44.72;18.73;;;-2.70;89.60;;;;;;5032293;28;20033;-82
2020/12/09 07:05:25;;;;;;;48.17;18.30;;;-2.60;89.70;;;;;;5015312;28;20056;-81
2020/12/09 07:07:58;;;;;;;44.53;18.70;;;-2.60;89.90;;;;;;5032920;28;20033;-81
2020/12/09 07:10:26;;;;;;;49.55;20.77;;;-2.60;89.90;;;;;;5033140;28;20076;-83
2020/12/09 07:13:01;;;;;;;43.92;19.98;;;-2.60;89.90;;;;;;5014502;28;20025;-84
2020/12/09 07:15:28;;;;;;;50.10;21.58;;;-2.60;90.00;;;;;;5031123;28;20105;-80
2020/12/09 07:17:54;;;;;;;47.30;19.67;;;-2.50;90.00;;;;;;5032141;28;20415;-79
2020/12/09 07:20:20;;;;;;;57.47;23.90;;;-2.50;90.00;;;;;;5031953;28;20360;-80
2020/12/09 07:22:46;;;;;;;53.88;23.02;;;-2.50;90.10;;;;;;5015320;28;20033;-82
2020/12/09 07:25:12;;;;;;;51.30;22.20;;;-2.50;90.10;;;;;;5032990;28;20049;-81
2020/12/09 07:27:38;;;;;;;50.35;21.55;;;-2.40;90.20;;;;;;5032638;28;20034;-75
2020/12/09 07:30:11;;;;;;;44.08;18.88;;;-2.40;90.10;;;;;;5033327;28;20430;-80
2020/12/09 07:32:37;;;;;;;54.10;20.70;;;-2.40;90.10;;;;;;5015030;28;20021;-79
2020/12/09 07:35:11;;;;;;;39.88;18.02;;;-2.40;90.20;;;;;;5015053;28;20037;-84
2020/12/09 07:37:40;;;;;;;44.00;19.58;;;-2.30;90.20;;;;;;5032007;28;20048;-81
2020/12/09 07:40:29;;;;;;;50.20;21.13;;;-2.30;90.10;;;;;;5031743;28;20025;-80
2020/12/09 07:43:10;;;;;;;44.33;19.77;;;-2.30;90.20;;;;;;5033308;28;20053;-81
2020/12/09 07:45:45;;;;;;;62.45;26.67;;;-2.30;90.20;;;;;;5021926;28;20488;-81
2020/12/09 07:48:17;;;;;;;49.70;19.27;;;-2.30;90.20;;;;;;5042742;28;20060;-82
2020/12/09 07:50:50;;;;;;;43.50;17.90;;;-2.30;90.10;;;;;;5017662;28;20112;-82
2020/12/09 07:53:16;;;;;;;41.15;15.85;;;-2.30;90.00;;;;;;5033790;28;20021;-83
2020/12/09 07:55:42;;;;;;;38.17;18.33;;;-2.40;90.00;;;;;;5033757;28;20380;-82
2020/12/09 07:58:10;;;;;;;48.20;18.50;;;-2.40;90.10;;;;;;5034047;28;20055;-80
2020/12/09 08:00:47;;;;;;;44.55;19.40;;;-2.40;90.10;;;;;;5032576;28;20029;-80
2020/12/09 08:03:26;;;;;;;48.60;18.50;;;-2.40;90.20;;;;;;5014374;28;20449;-81
2020/12/09 08:05:55;;;;;;;44.03;17.85;;;-2.40;90.30;;;;;;5034873;28;20352;-81
2020/12/09 08:08:22;;;;;;;46.70;17.17;;;-2.40;90.20;;;;;;5032908;28;20026;-80
2020/12/09 08:10:51;;;;;;;47.10;20.20;;;-2.40;90.20;;;;;;5033539;28;20037;-80
2020/12/09 08:13:26;;;;;;;50.65;20.27;;;-2.40;90.30;;;;;;5032577;28;20025;-81
2020/12/09 08:16:06;;;;;;;50.35;20.75;;;-2.40;90.60;;;;;;5032631;28;20022;-81
2020/12/09 08:18:33;;;;;;;54.05;20.65;;;-2.40;90.50;;;;;;5031903;28;20097;-82
2020/12/09 08:20:59;;;;;;;48.92;18.67;;;-2.40;90.50;;;;;;5032085;28;20017;-82
2020/12/09 08:23:37;;;;;;;48.95;20.42;;;-2.40;90.50;;;;;;5034218;28;20056;-82
2020/12/09 08:26:03;;;;;;;52.45;20.92;;;-2.40;90.80;;;;;;5017815;28;20036;-82
2020/12/09 08:28:29;;;;;;;51.55;20.42;;;-2.30;90.80;;;;;;5034970;28;20030;-80
2020/12/09 08:30:55;;;;;;;54.45;23.13;;;-2.30;90.80;;;;;;5035810;28;20025;-82
2020/12/09 08:33:28;;;;;;;65.05;23.65;;;-2.30;90.80;;;;;;5018030;28;20072;-82
2020/12/09 08:36:00;;;;;;;46.70;21.30;;;-2.20;90.90;;;;;;5035304;28;20403;-81
2020/12/09 08:38:30;;;;;;;53.65;21.95;;;-2.20;91.00;;;;;;5034743;28;20033;-81
2020/12/09 08:40:58;;;;;;;44.45;21.35;;;-2.10;90.90;;;;;;5035388;28;20033;-82
2020/12/09 08:43:34;;;;;;;49.10;22.73;;;-2.10;90.90;;;;;;5035587;28;20476;-81
2020/12/09 08:46:05;;;;;;;48.25;20.90;;;-2.10;90.90;;;;;;5035783;28;20056;-81
2020/12/09 08:48:34;;;;;;;82.30;28.23;;;-2.10;90.90;;;;;;5035355;28;20022;-81
2020/12/09 08:51:00;;;;;;;56.85;24.48;;;-2.10;90.90;;;;;;5035377;28;20456;-81
2020/12/09 08:53:26;;;;;;;40.22;19.92;;;-2.00;91.20;;;;;;5034990;28;20076;-82
2020/12/09 08:55:52;;;;;;;38.40;17.17;;;-2.00;91.00;;;;;;5034596;28;20456;-79
2020/12/09 08:58:18;;;;;;;42.38;19.83;;;-2.00;91.00;;;;;;5017204;28;20021;-80
2020/12/09 09:00:45;;;;;;;39.83;18.90;;;-1.90;91.00;;;;;;5034350;28;20060;-82
2020/12/09 09:03:16;;;;;;;43.17;18.27;;;-1.90;90.90;;;;;;5034739;28;20578;-82
2020/12/09 09:05:43;;;;;;;60.15;26.30;;;-1.90;90.90;;;;;;5046445;28;20025;-82
2020/12/09 09:08:13;;;;;;;45.38;19.05;;;-1.90;90.70;;;;;;5054230;28;20021;-82
2020/12/09 09:10:40;;;;;;;44.92;19.73;;;-2.00;90.50;;;;;;5054104;28;20017;-82
2020/12/09 09:13:06;;;;;;;44.90;18.50;;;-2.00;90.60;;;;;;5036248;28;20104;-83
2020/12/09 09:15:34;;;;;;;36.72;14.55;;;-2.00;90.60;;;;;;5054664;28;20025;-81
2020/12/09 09:18:00;;;;;;;44.50;18.10;;;-2.10;90.60;;;;;;5054250;28;20025;-81
2020/12/09 09:20:26;;;;;;;38.38;16.00;;;-2.20;90.50;;;;;;5054146;28;20035;-81
2020/12/09 09:22:52;;;;;;;37.55;14.88;;;-2.20;90.60;;;;;;5054402;28;20028;-81
2020/12/09 09:25:19;;;;;;;41.83;17.33;;;-2.30;90.60;;;;;;5053895;28;20116;-81
2020/12/09 09:27:46;;;;;;;40.15;18.23;;;-2.30;90.80;;;;;;5036496;28;20459;-81
2020/12/09 09:30:12;;;;;;;62.00;23.58;;;-2.30;90.90;;;;;;5054094;28;20379;-82
2020/12/09 09:32:37;;;;;;;45.05;20.05;;;-2.20;91.00;;;;;;5036284;28;20025;-80
2020/12/09 09:35:04;;;;;;;43.00;17.17;;;-2.20;90.80;;;;;;5035851;28;20021;-81
2020/12/09 09:37:30;;;;;;;47.38;19.25;;;-2.20;90.80;;;;;;5054381;28;20029;-81
2020/12/09 09:39:56;;;;;;;37.65;17.02;;;-2.20;90.90;;;;;;5036272;28;20496;-81
2020/12/09 09:42:22;;;;;;;33.88;15.90;;;-2.20;90.90;;;;;;5054898;28;20100;-81
2020/12/09 09:44:49;;;;;;;43.53;18.73;;;-2.30;90.80;;;;;;5055068;28;20033;-81
2020/12/09 09:47:15;;;;;;;36.92;15.70;;;-2.30;90.80;;;;;;5054771;28;20032;-81
2020/12/09 09:49:40;;;;;;;38.25;17.00;;;-2.30;90.90;;;;;;5054258;28;20017;-82
2020/12/09 09:52:06;;;;;;;49.63;21.45;;;-2.30;90.90;;;;;;5054324;28;20021;-81
2020/12/09 09:54:33;;;;;;;50.22;21.27;;;-2.30;91.00;;;;;;5054323;28;20032;-82
2020/12/09 09:56:58;;;;;;;43.30;18.63;;;-2.20;91.20;;;;;;5055902;28;20530;-83
2020/12/09 09:59:24;;;;;;;46.67;18.52;;;-2.20;91.00;;;;;;5037044;28;20116;-83
2020/12/09 10:01:53;;;;;;;40.55;16.95;;;-2.20;90.90;;;;;;5055290;28;20028;-83
2020/12/09 10:04:20;;;;;;;45.38;18.45;;;-2.20;90.90;;;;;;5054418;28;20032;-83
2020/12/09 10:06:46;;;;;;;34.78;16.20;;;-2.30;90.80;;;;;;5036160;28;20041;-83
2020/12/09 10:09:12;;;;;;;58.72;22.40;;;-2.30;90.70;;;;;;5053224;28;20102;-82
2020/12/09 10:11:39;;;;;;;67.47;23.63;;;-2.40;90.70;;;;;;5053296;28;20035;-84
2020/12/09 10:14:06;;;;;;;59.13;23.23;;;-2.40;90.90;;;;;;5035728;28;20025;-82
2020/12/09 10:16:33;;;;;;;43.75;19.30;;;-2.40;91.20;;;;;;5034988;28;20057;-83
2020/12/09 10:18:59;;;;;;;47.13;19.33;;;-2.40;90.80;;;;;;5015989;28;20021;-81
2020/12/09 10:21:30;;;;;;;50.67;18.63;;;-2.40;90.80;;;;;;5033145;28;20021;-81
2020/12/09 10:23:57;;;;;;;44.30;17.65;;;-2.40;91.00;;;;;;5032197;28;20065;-82
2020/12/09 10:26:36;;;;;;;38.20;16.48;;;-2.40;91.10;;;;;;5033410;28;20376;-83
2020/12/09 10:29:07;;;;;;;41.22;18.70;;;-2.40;91.00;;;;;;5015878;28;20483;-82
2020/12/09 10:31:40;;;;;;;90.93;37.28;;;-2.40;90.90;;;;;;5016001;28;20041;-84
2020/12/09 10:34:08;;;;;;;55.92;23.30;;;-2.40;91.10;;;;;;5037234;28;20057;-83
2020/12/09 10:36:35;;;;;;;43.15;20.75;;;-2.30;91.20;;;;;;5039886;28;20040;-84
2020/12/09 10:39:03;;;;;;;39.83;16.90;;;-2.30;91.20;;;;;;5032658;28;20071;-80
2020/12/09 10:41:29;;;;;;;30.83;14.73;;;-2.30;91.20;;;;;;5032480;28;20447;-82
2020/12/09 10:43:55;;;;;;;34.15;14.90;;;-2.30;90.80;;;;;;5032993;28;20079;-80
2020/12/09 10:46:21;;;;;;;47.40;19.60;;;-2.40;90.80;;;;;;5033028;28;20058;-82
2020/12/09 10:48:48;;;;;;;41.70;18.17;;;-2.50;90.80;;;;;;5033577;28;20847;-83
2020/12/09 10:51:15;;;;;;;44.28;21.35;;;-2.50;90.90;;;;;;5033452;28;20026;-81
2020/12/09 10:53:41;;;;;;;37.88;16.90;;;-2.50;91.10;;;;;;5032815;28;20136;-81
2020/12/09 10:56:06;;;;;;;42.15;17.10;;;-2.40;91.20;;;;;;5032943;28;20133;-82
2020/12/09 10:58:32;;;;;;;38.83;17.52;;;-2.40;91.10;;;;;;5033752;28;20036;-79
2020/12/09 11:00:58;;;;;;;46.78;18.33;;;-2.40;91.00;;;;;;5032668;28;20029;-82
2020/12/09 11:03:24;;;;;;;41.78;18.20;;;-2.50;91.10;;;;;;5035112;28;20057;-83
2020/12/09 11:05:51;;;;;;;42.85;17.17;;;-2.50;91.00;;;;;;5018854;28;20025;-84
2020/12/09 11:08:17;;;;;;;50.05;19.73;;;-2.50;91.10;;;;;;5032820;28;20537;-83
2020/12/09 11:10:43;;;;;;;42.33;18.55;;;-2.50;91.10;;;;;;5034210;28;20052;-83
2020/12/09 11:13:09;;;;;;;36.78;18.17;;;-2.50;91.10;;;;;;5032782;28;20017;-84
2020/12/09 11:15:36;;;;;;;38.40;17.02;;;-2.50;91.30;;;;;;5033350;28;20515;-84
2020/12/09 11:18:01;;;;;;;40.55;18.02;;;-2.40;91.30;;;;;;5015636;28;20032;-83
2020/12/09 11:20:27;;;;;;;38.33;18.15;;;-2.40;91.20;;;;;;5015621;28;20394;-85
2020/12/09 11:22:54;;;;;;;40.55;19.77;;;-2.50;91.10;;;;;;5033247;28;20032;-85
2020/12/09 11:25:22;;;;;;;36.42;17.35;;;-2.50;91.10;;;;;;5032699;28;20049;-83
2020/12/09 11:27:47;;;;;;;34.58;16.02;;;-2.50;91.00;;;;;;5014700;28;20144;-83
2020/12/09 11:30:13;;;;;;;40.30;17.40;;;-2.50;90.90;;;;;;5014463;28;20029;-82
2020/12/09 11:32:39;;;;;;;52.83;21.27;;;-2.50;91.10;;;;;;5013624;28;20368;-79
2020/12/09 11:35:04;;;;;;;46.60;19.40;;;-2.50;91.30;;;;;;5031532;28;20101;-79
2020/12/09 11:37:33;;;;;;;43.05;17.85;;;-2.50;91.40;;;;;;5031525;28;20087;-78
2020/12/09 11:39:59;;;;;;;62.78;23.33;;;-2.40;91.10;;;;;;5031515;28;20028;-79
2020/12/09 11:42:25;;;;;;;38.42;17.60;;;-2.50;91.20;;;;;;5031052;28;20415;-79
2020/12/09 11:44:51;;;;;;;41.00;17.52;;;-2.50;91.20;;;;;;5013590;28;20393;-80
2020/12/09 11:47:17;;;;;;;50.78;21.75;;;-2.50;91.10;;;;;;5030892;28;20136;-79
2020/12/09 11:49:42;;;;;;;52.70;22.05;;;-2.50;91.10;;;;;;5030961;28;20036;-80
2020/12/09 11:52:08;;;;;;;54.25;20.05;;;-2.50;91.20;;;;;;5031368;28;20028;-80
2020/12/09 11:54:34;;;;;;;43.90;16.33;;;-2.50;91.30;;;;;;5030951;28;20401;-81
2020/12/09 11:57:00;;;;;;;50.17;20.35;;;-2.50;91.20;;;;;;5030794;28;20029;-79
2020/12/09 11:59:26;;;;;;;47.88;20.25;;;-2.50;91.10;;;;;;5017017;28;20029;-80
2020/12/09 12:01:52;;;;;;;42.65;18.45;;;-2.50;91.20;;;;;;5035162;28;20030;-80
2020/12/09 12:04:17;;;;;;;57.22;23.27;;;-2.50;91.10;;;;;;5016715;28;20040;-79
2020/12/09 12:06:43;;;;;;;37.88;15.63;;;-2.50;91.10;;;;;;5035000;28;20033;-80
2020/12/09 12:09:09;;;;;;;50.40;19.52;;;-2.50;91.10;;;;;;5034479;28;20052;-79
2020/12/09 12:11:35;;;;;;;38.65;19.25;;;-2.50;91.10;;;;;;5016747;28;20037;-81
2020/12/09 12:14:00;;;;;;;35.45;17.38;;;-2.50;91.20;;;;;;5034201;28;20463;-81
2020/12/09 12:16:26;;;;;;;40.80;17.83;;;-2.50;91.20;;;;;;5034732;28;20022;-79
2020/12/09 12:18:53;;;;;;;35.83;17.63;;;-2.50;91.30;;;;;;5035171;28;20029;-80
2020/12/09 12:21:21;;;;;;;41.95;17.17;;;-2.50;91.40;;;;;;5034695;28;20084;-79
2020/12/09 12:23:47;;;;;;;42.28;18.95;;;-2.50;91.20;;;;;;5034395;28;20099;-80
2020/12/09 12:26:17;;;;;;;39.22;18.50;;;-2.50;91.20;;;;;;5034357;28;20030;-79
2020/12/09 12:28:43;;;;;;;35.70;17.40;;;-2.50;91.30;;;;;;5034640;28;20037;-79
2020/12/09 12:31:12;;;;;;;43.38;21.40;;;-2.40;91.40;;;;;;5034285;28;20036;-79
2020/12/09 12:33:38;;;;;;;33.33;14.98;;;-2.40;91.50;;;;;;5035489;28;20821;-80